sensor_id;sensor_type;location;lat;lon;timestamp;P1;P2;P0
70255;PMS5003;57669;52.624;-1.688;2023-02-22T00:00:03;32;31;
70255;PMS5003;57669;52.624;-1.688;2023-02-22T00:02:28;34;33;
70255;PMS5003;57669;52.624;-1.688;2023-02-22T00:04:53;32;30;
70255;PMS5003;57669;52.624;-1.688;2023-02-22T00:09:44;29;28;
70255;PMS5003;57669;52.624;-1.688;2023-02-22T00:12:10;33;33;
70255;PMS5003;57669;52.624;-1.688;2023-02-22T00:17:01;32;31;
70255;PMS5003;57669;52.624;-1.688;2023-02-22T00:21:53;36;35;
70255;PMS5003;57669;52.624;-1.688;2023-02-22T00:24:18;29;28;
70255;PMS5003;57669;52.624;-1.688;2023-02-22T00:26:43;30;30;
70255;PMS5003;57669;52.624;-1.688;2023-02-22T00:29:09;31;31;
70255;PMS5003;57669;52.624;-1.688;2023-02-22T00:31:36;34;34;
70255;PMS5003;57669;52.624;-1.688;2023-02-22T00:34:00;29;29;
70255;PMS5003;57669;52.624;-1.688;2023-02-22T00:36:26;38;37;
70255;PMS5003;57669;52.624;-1.688;2023-02-22T00:38:51;29;29;
70255;PMS5003;57669;52.624;-1.688;2023-02-22T00:41:16;30;30;
70255;PMS5003;57669;52.624;-1.688;2023-02-22T00:43:42;34;33;
70255;PMS5003;57669;52.624;-1.688;2023-02-22T00:46:07;35;34;
70255;PMS5003;57669;52.624;-1.688;2023-02-22T00:48:33;33;32;
70255;PMS5003;57669;52.624;-1.688;2023-02-22T00:50:59;35;34;
70255;PMS5003;57669;52.624;-1.688;2023-02-22T00:55:50;38;35;
70255;PMS5003;57669;52.624;-1.688;2023-02-22T00:58:15;34;34;
70255;PMS5003;57669;52.624;-1.688;2023-02-22T01:00:41;34;30;
70255;PMS5003;57669;52.624;-1.688;2023-02-22T01:03:06;41;38;
70255;PMS5003;57669;52.624;-1.688;2023-02-22T01:05:31;30;29;
70255;PMS5003;57669;52.624;-1.688;2023-02-22T01:07:58;36;33;
70255;PMS5003;57669;52.624;-1.688;2023-02-22T01:10:24;38;38;
70255;PMS5003;57669;52.624;-1.688;2023-02-22T01:12:48;35;34;
70255;PMS5003;57669;52.624;-1.688;2023-02-22T01:15:14;34;33;
70255;PMS5003;57669;52.624;-1.688;2023-02-22T01:17:39;37;36;
70255;PMS5003;57669;52.624;-1.688;2023-02-22T01:20:05;39;36;
70255;PMS5003;57669;52.624;-1.688;2023-02-22T01:22:30;32;31;
70255;PMS5003;57669;52.624;-1.688;2023-02-22T01:24:55;32;29;
70255;PMS5003;57669;52.624;-1.688;2023-02-22T01:27:20;33;33;
70255;PMS5003;57669;52.624;-1.688;2023-02-22T01:32:11;35;33;
70255;PMS5003;57669;52.624;-1.688;2023-02-22T01:34:37;34;32;
70255;PMS5003;57669;52.624;-1.688;2023-02-22T01:37:02;30;29;
70255;PMS5003;57669;52.624;-1.688;2023-02-22T01:39:27;30;29;
70255;PMS5003;57669;52.624;-1.688;2023-02-22T01:41:53;39;33;
70255;PMS5003;57669;52.624;-1.688;2023-02-22T01:44:20;33;31;
70255;PMS5003;57669;52.624;-1.688;2023-02-22T01:46:43;38;36;
70255;PMS5003;57669;52.624;-1.688;2023-02-22T01:49:09;42;36;
70255;PMS5003;57669;52.624;-1.688;2023-02-22T01:51:35;36;35;
70255;PMS5003;57669;52.624;-1.688;2023-02-22T01:54:00;30;28;
70255;PMS5003;57669;52.624;-1.688;2023-02-22T01:56:25;31;28;
70255;PMS5003;57669;52.624;-1.688;2023-02-22T01:58:51;39;38;
70255;PMS5003;57669;52.624;-1.688;2023-02-22T02:01:16;33;31;
70255;PMS5003;57669;52.624;-1.688;2023-02-22T02:03:41;38;34;
70255;PMS5003;57669;52.624;-1.688;2023-02-22T02:06:07;36;34;
70255;PMS5003;57669;52.624;-1.688;2023-02-22T02:08:35;41;36;
70255;PMS5003;57669;52.624;-1.688;2023-02-22T02:10:57;35;32;
70255;PMS5003;57669;52.624;-1.688;2023-02-22T02:13:23;37;35;
70255;PMS5003;57669;52.624;-1.688;2023-02-22T02:15:48;38;33;
70255;PMS5003;57669;52.624;-1.688;2023-02-22T02:18:14;40;36;
70255;PMS5003;57669;52.624;-1.688;2023-02-22T02:20:43;30;29;
70255;PMS5003;57669;52.624;-1.688;2023-02-22T02:23:07;38;36;
70255;PMS5003;57669;52.624;-1.688;2023-02-22T02:28:00;32;32;
70255;PMS5003;57669;52.624;-1.688;2023-02-22T02:32:51;32;31;
70255;PMS5003;57669;52.624;-1.688;2023-02-22T02:35:13;32;30;
70255;PMS5003;57669;52.624;-1.688;2023-02-22T02:37:40;34;31;
70255;PMS5003;57669;52.624;-1.688;2023-02-22T02:40:08;34;32;
70255;PMS5003;57669;52.624;-1.688;2023-02-22T02:42:31;36;34;
70255;PMS5003;57669;52.624;-1.688;2023-02-22T02:44:57;29;29;
70255;PMS5003;57669;52.624;-1.688;2023-02-22T02:47:21;35;33;
70255;PMS5003;57669;52.624;-1.688;2023-02-22T02:49:46;33;29;
70255;PMS5003;57669;52.624;-1.688;2023-02-22T02:52:10;32;29;
70255;PMS5003;57669;52.624;-1.688;2023-02-22T02:54:36;37;34;
70255;PMS5003;57669;52.624;-1.688;2023-02-22T02:57:01;35;29;
70255;PMS5003;57669;52.624;-1.688;2023-02-22T02:59:28;30;28;
70255;PMS5003;57669;52.624;-1.688;2023-02-22T03:01:56;31;27;
70255;PMS5003;57669;52.624;-1.688;2023-02-22T03:04:20;31;28;
70255;PMS5003;57669;52.624;-1.688;2023-02-22T03:09:11;31;30;
70255;PMS5003;57669;52.624;-1.688;2023-02-22T03:11:38;29;28;
70255;PMS5003;57669;52.624;-1.688;2023-02-22T03:14:02;27;25;
70255;PMS5003;57669;52.624;-1.688;2023-02-22T03:16:29;25;25;
70255;PMS5003;57669;52.624;-1.688;2023-02-22T03:18:53;30;28;
70255;PMS5003;57669;52.624;-1.688;2023-02-22T03:21:20;33;32;
70255;PMS5003;57669;52.624;-1.688;2023-02-22T03:23:44;26;24;
70255;PMS5003;57669;52.624;-1.688;2023-02-22T03:26:10;31;30;
70255;PMS5003;57669;52.624;-1.688;2023-02-22T03:28:34;25;23;
70255;PMS5003;57669;52.624;-1.688;2023-02-22T03:31:00;23;23;
70255;PMS5003;57669;52.624;-1.688;2023-02-22T03:33:26;24;23;
70255;PMS5003;57669;52.624;-1.688;2023-02-22T03:35:52;29;29;
70255;PMS5003;57669;52.624;-1.688;2023-02-22T03:38:16;26;26;
70255;PMS5003;57669;52.624;-1.688;2023-02-22T03:40:42;23;23;
70255;PMS5003;57669;52.624;-1.688;2023-02-22T03:43:08;29;29;
70255;PMS5003;57669;52.624;-1.688;2023-02-22T03:45:32;31;30;
70255;PMS5003;57669;52.624;-1.688;2023-02-22T03:48:00;21;20;
70255;PMS5003;57669;52.624;-1.688;2023-02-22T03:50:24;29;29;
70255;PMS5003;57669;52.624;-1.688;2023-02-22T03:52:48;26;25;
70255;PMS5003;57669;52.624;-1.688;2023-02-22T03:55:14;23;23;
70255;PMS5003;57669;52.624;-1.688;2023-02-22T03:57:40;25;24;
70255;PMS5003;57669;52.624;-1.688;2023-02-22T04:00:06;24;24;
70255;PMS5003;57669;52.624;-1.688;2023-02-22T04:02:30;29;27;
70255;PMS5003;57669;52.624;-1.688;2023-02-22T04:04:56;23;23;
70255;PMS5003;57669;52.624;-1.688;2023-02-22T04:07:21;26;24;
70255;PMS5003;57669;52.624;-1.688;2023-02-22T04:09:46;23;21;
70255;PMS5003;57669;52.624;-1.688;2023-02-22T04:12:12;25;24;
70255;PMS5003;57669;52.624;-1.688;2023-02-22T04:14:37;26;24;
70255;PMS5003;57669;52.624;-1.688;2023-02-22T04:17:03;25;25;
70255;PMS5003;57669;52.624;-1.688;2023-02-22T04:19:29;27;26;
70255;PMS5003;57669;52.624;-1.688;2023-02-22T04:21:59;20;20;
70255;PMS5003;57669;52.624;-1.688;2023-02-22T04:24:19;19;18;
70255;PMS5003;57669;52.624;-1.688;2023-02-22T04:26:44;19;18;
70255;PMS5003;57669;52.624;-1.688;2023-02-22T04:29:10;19;17;
70255;PMS5003;57669;52.624;-1.688;2023-02-22T04:31:35;24;23;
70255;PMS5003;57669;52.624;-1.688;2023-02-22T04:34:01;26;24;
70255;PMS5003;57669;52.624;-1.688;2023-02-22T04:36:26;25;24;
70255;PMS5003;57669;52.624;-1.688;2023-02-22T04:38:52;23;22;
70255;PMS5003;57669;52.624;-1.688;2023-02-22T04:41:18;22;20;
70255;PMS5003;57669;52.624;-1.688;2023-02-22T04:43:43;27;26;
70255;PMS5003;57669;52.624;-1.688;2023-02-22T04:46:09;25;25;
70255;PMS5003;57669;52.624;-1.688;2023-02-22T04:48:34;23;22;
70255;PMS5003;57669;52.624;-1.688;2023-02-22T04:51:00;29;27;
70255;PMS5003;57669;52.624;-1.688;2023-02-22T04:53:25;27;24;
70255;PMS5003;57669;52.624;-1.688;2023-02-22T04:55:51;31;31;
70255;PMS5003;57669;52.624;-1.688;2023-02-22T04:58:16;27;25;
70255;PMS5003;57669;52.624;-1.688;2023-02-22T05:00:41;23;23;
70255;PMS5003;57669;52.624;-1.688;2023-02-22T05:03:07;27;26;
70255;PMS5003;57669;52.624;-1.688;2023-02-22T05:05:32;32;30;
70255;PMS5003;57669;52.624;-1.688;2023-02-22T05:07:58;28;25;
70255;PMS5003;57669;52.624;-1.688;2023-02-22T05:10:29;32;32;
70255;PMS5003;57669;52.624;-1.688;2023-02-22T05:12:49;32;32;
70255;PMS5003;57669;52.624;-1.688;2023-02-22T05:15:15;33;33;
70255;PMS5003;57669;52.624;-1.688;2023-02-22T05:20:05;31;30;
70255;PMS5003;57669;52.624;-1.688;2023-02-22T05:22:31;37;37;
70255;PMS5003;57669;52.624;-1.688;2023-02-22T05:24:56;38;37;
70255;PMS5003;57669;52.624;-1.688;2023-02-22T05:27:21;34;33;
70255;PMS5003;57669;52.624;-1.688;2023-02-22T05:29:47;32;31;
70255;PMS5003;57669;52.624;-1.688;2023-02-22T05:32:13;34;33;
70255;PMS5003;57669;52.624;-1.688;2023-02-22T05:34:39;30;30;
70255;PMS5003;57669;52.624;-1.688;2023-02-22T05:37:04;37;36;
70255;PMS5003;57669;52.624;-1.688;2023-02-22T05:39:29;37;36;
70255;PMS5003;57669;52.624;-1.688;2023-02-22T05:42:00;36;36;
70255;PMS5003;57669;52.624;-1.688;2023-02-22T05:44:20;43;41;
70255;PMS5003;57669;52.624;-1.688;2023-02-22T05:46:45;36;36;
70255;PMS5003;57669;52.624;-1.688;2023-02-22T05:49:10;35;33;
70255;PMS5003;57669;52.624;-1.688;2023-02-22T05:51:36;43;40;
70255;PMS5003;57669;52.624;-1.688;2023-02-22T05:54:02;34;34;
70255;PMS5003;57669;52.624;-1.688;2023-02-22T05:56:28;36;34;
70255;PMS5003;57669;52.624;-1.688;2023-02-22T05:58:53;41;37;
70255;PMS5003;57669;52.624;-1.688;2023-02-22T06:01:18;40;39;
70255;PMS5003;57669;52.624;-1.688;2023-02-22T06:03:45;38;36;
70255;PMS5003;57669;52.624;-1.688;2023-02-22T06:06:09;38;37;
70255;PMS5003;57669;52.624;-1.688;2023-02-22T06:08:34;41;39;
70255;PMS5003;57669;52.624;-1.688;2023-02-22T06:10:59;40;38;
70255;PMS5003;57669;52.624;-1.688;2023-02-22T06:13:24;42;40;
70255;PMS5003;57669;52.624;-1.688;2023-02-22T06:15:50;38;37;
70255;PMS5003;57669;52.624;-1.688;2023-02-22T06:18:16;43;43;
70255;PMS5003;57669;52.624;-1.688;2023-02-22T06:20:40;45;42;
70255;PMS5003;57669;52.624;-1.688;2023-02-22T06:23:06;43;43;
70255;PMS5003;57669;52.624;-1.688;2023-02-22T06:25:32;48;46;
70255;PMS5003;57669;52.624;-1.688;2023-02-22T06:27:57;46;45;
70255;PMS5003;57669;52.624;-1.688;2023-02-22T06:30:23;47;46;
70255;PMS5003;57669;52.624;-1.688;2023-02-22T06:32:47;48;45;
70255;PMS5003;57669;52.624;-1.688;2023-02-22T06:35:13;45;44;
70255;PMS5003;57669;52.624;-1.688;2023-02-22T06:37:39;44;42;
70255;PMS5003;57669;52.624;-1.688;2023-02-22T06:40:04;56;52;
70255;PMS5003;57669;52.624;-1.688;2023-02-22T06:42:30;47;45;
70255;PMS5003;57669;52.624;-1.688;2023-02-22T06:44:55;44;44;
70255;PMS5003;57669;52.624;-1.688;2023-02-22T06:47:21;50;46;
70255;PMS5003;57669;52.624;-1.688;2023-02-22T06:49:50;48;47;
70255;PMS5003;57669;52.624;-1.688;2023-02-22T06:52:11;51;51;
70255;PMS5003;57669;52.624;-1.688;2023-02-22T06:54:37;53;51;
70255;PMS5003;57669;52.624;-1.688;2023-02-22T06:57:03;57;52;
70255;PMS5003;57669;52.624;-1.688;2023-02-22T06:59:28;59;54;
70255;PMS5003;57669;52.624;-1.688;2023-02-22T07:01:54;62;56;
70255;PMS5003;57669;52.624;-1.688;2023-02-22T07:04:20;45;44;
70255;PMS5003;57669;52.624;-1.688;2023-02-22T07:06:44;57;54;
70255;PMS5003;57669;52.624;-1.688;2023-02-22T07:09:10;59;56;
70255;PMS5003;57669;52.624;-1.688;2023-02-22T07:11:37;56;53;
70255;PMS5003;57669;52.624;-1.688;2023-02-22T07:14:00;59;56;
70255;PMS5003;57669;52.624;-1.688;2023-02-22T07:16:25;50;48;
70255;PMS5003;57669;52.624;-1.688;2023-02-22T07:18:50;63;57;
70255;PMS5003;57669;52.624;-1.688;2023-02-22T07:21:16;55;52;
70255;PMS5003;57669;52.624;-1.688;2023-02-22T07:23:45;59;56;
70255;PMS5003;57669;52.624;-1.688;2023-02-22T07:26:07;55;53;
70255;PMS5003;57669;52.624;-1.688;2023-02-22T07:28:32;54;52;
70255;PMS5003;57669;52.624;-1.688;2023-02-22T07:30:58;54;51;
70255;PMS5003;57669;52.624;-1.688;2023-02-22T07:33:24;46;44;
70255;PMS5003;57669;52.624;-1.688;2023-02-22T07:35:50;42;42;
70255;PMS5003;57669;52.624;-1.688;2023-02-22T07:38:16;51;48;
70255;PMS5003;57669;52.624;-1.688;2023-02-22T07:40:40;42;40;
70255;PMS5003;57669;52.624;-1.688;2023-02-22T07:43:12;49;49;
70255;PMS5003;57669;52.624;-1.688;2023-02-22T07:50:23;42;42;
70255;PMS5003;57669;52.624;-1.688;2023-02-22T07:52:49;43;42;
70255;PMS5003;57669;52.624;-1.688;2023-02-22T07:55:14;44;44;
70255;PMS5003;57669;52.624;-1.688;2023-02-22T07:57:38;42;40;
70255;PMS5003;57669;52.624;-1.688;2023-02-22T08:00:04;37;37;
70255;PMS5003;57669;52.624;-1.688;2023-02-22T08:02:28;45;42;
70255;PMS5003;57669;52.624;-1.688;2023-02-22T08:04:54;50;46;
70255;PMS5003;57669;52.624;-1.688;2023-02-22T08:07:19;47;43;
70255;PMS5003;57669;52.624;-1.688;2023-02-22T08:09:44;45;44;
70255;PMS5003;57669;52.624;-1.688;2023-02-22T08:12:10;43;42;
70255;PMS5003;57669;52.624;-1.688;2023-02-22T08:14:35;45;43;
70255;PMS5003;57669;52.624;-1.688;2023-02-22T08:17:01;48;45;
70255;PMS5003;57669;52.624;-1.688;2023-02-22T08:19:27;49;46;
70255;PMS5003;57669;52.624;-1.688;2023-02-22T08:21:52;46;45;
70255;PMS5003;57669;52.624;-1.688;2023-02-22T08:24:18;40;39;
70255;PMS5003;57669;52.624;-1.688;2023-02-22T08:26:44;39;39;
70255;PMS5003;57669;52.624;-1.688;2023-02-22T08:29:09;45;44;
70255;PMS5003;57669;52.624;-1.688;2023-02-22T08:31:35;40;40;
70255;PMS5003;57669;52.624;-1.688;2023-02-22T08:34:00;48;46;
70255;PMS5003;57669;52.624;-1.688;2023-02-22T08:36:25;38;38;
70255;PMS5003;57669;52.624;-1.688;2023-02-22T08:38:51;43;42;
70255;PMS5003;57669;52.624;-1.688;2023-02-22T08:41:16;38;36;
70255;PMS5003;57669;52.624;-1.688;2023-02-22T08:43:42;44;43;
70255;PMS5003;57669;52.624;-1.688;2023-02-22T08:46:07;37;35;
70255;PMS5003;57669;52.624;-1.688;2023-02-22T08:48:32;37;36;
70255;PMS5003;57669;52.624;-1.688;2023-02-22T08:50:57;38;36;
70255;PMS5003;57669;52.624;-1.688;2023-02-22T08:53:22;38;38;
70255;PMS5003;57669;52.624;-1.688;2023-02-22T08:55:48;43;42;
70255;PMS5003;57669;52.624;-1.688;2023-02-22T08:58:13;38;36;
70255;PMS5003;57669;52.624;-1.688;2023-02-22T09:00:39;38;35;
70255;PMS5003;57669;52.624;-1.688;2023-02-22T09:03:05;39;37;
70255;PMS5003;57669;52.624;-1.688;2023-02-22T09:05:30;39;38;
70255;PMS5003;57669;52.624;-1.688;2023-02-22T09:07:55;37;37;
70255;PMS5003;57669;52.624;-1.688;2023-02-22T09:10:22;38;36;
70255;PMS5003;57669;52.624;-1.688;2023-02-22T09:15:13;32;31;
70255;PMS5003;57669;52.624;-1.688;2023-02-22T09:17:38;31;29;
70255;PMS5003;57669;52.624;-1.688;2023-02-22T09:20:02;29;28;
70255;PMS5003;57669;52.624;-1.688;2023-02-22T09:22:28;35;35;
70255;PMS5003;57669;52.624;-1.688;2023-02-22T09:24:54;28;28;
70255;PMS5003;57669;52.624;-1.688;2023-02-22T09:27:19;29;28;
70255;PMS5003;57669;52.624;-1.688;2023-02-22T09:29:46;34;32;
70255;PMS5003;57669;52.624;-1.688;2023-02-22T09:32:11;27;26;
70255;PMS5003;57669;52.624;-1.688;2023-02-22T09:34:37;30;28;
70255;PMS5003;57669;52.624;-1.688;2023-02-22T09:37:02;27;27;
70255;PMS5003;57669;52.624;-1.688;2023-02-22T09:39:28;24;21;
70255;PMS5003;57669;52.624;-1.688;2023-02-22T09:41:56;27;24;
70255;PMS5003;57669;52.624;-1.688;2023-02-22T09:44:19;19;18;
70255;PMS5003;57669;52.624;-1.688;2023-02-22T09:46:44;23;22;
70255;PMS5003;57669;52.624;-1.688;2023-02-22T09:49:14;21;21;
70255;PMS5003;57669;52.624;-1.688;2023-02-22T09:51:37;22;22;
70255;PMS5003;57669;52.624;-1.688;2023-02-22T09:54:01;17;16;
70255;PMS5003;57669;52.624;-1.688;2023-02-22T09:56:26;15;13;
70255;PMS5003;57669;52.624;-1.688;2023-02-22T09:58:52;16;16;
70255;PMS5003;57669;52.624;-1.688;2023-02-22T10:01:18;17;15;
70255;PMS5003;57669;52.624;-1.688;2023-02-22T10:03:46;22;21;
70255;PMS5003;57669;52.624;-1.688;2023-02-22T10:06:09;28;28;
70255;PMS5003;57669;52.624;-1.688;2023-02-22T10:08:33;7;7;
70255;PMS5003;57669;52.624;-1.688;2023-02-22T10:11:02;11;9;
70255;PMS5003;57669;52.624;-1.688;2023-02-22T10:13:27;7;7;
70255;PMS5003;57669;52.624;-1.688;2023-02-22T10:15:51;8;8;
70255;PMS5003;57669;52.624;-1.688;2023-02-22T10:20:44;7;7;
70255;PMS5003;57669;52.624;-1.688;2023-02-22T10:23:09;5;5;
70255;PMS5003;57669;52.624;-1.688;2023-02-22T10:25:34;6;5;
70255;PMS5003;57669;52.624;-1.688;2023-02-22T10:27:58;6;6;
70255;PMS5003;57669;52.624;-1.688;2023-02-22T10:30:24;6;5;
70255;PMS5003;57669;52.624;-1.688;2023-02-22T10:32:49;6;6;
70255;PMS5003;57669;52.624;-1.688;2023-02-22T10:35:16;4;3;
70255;PMS5003;57669;52.624;-1.688;2023-02-22T10:37:39;3;3;
70255;PMS5003;57669;52.624;-1.688;2023-02-22T10:42:30;2;2;
70255;PMS5003;57669;52.624;-1.688;2023-02-22T10:44:56;4;3;
70255;PMS5003;57669;52.624;-1.688;2023-02-22T10:47:21;4;3;
70255;PMS5003;57669;52.624;-1.688;2023-02-22T10:49:48;4;3;
70255;PMS5003;57669;52.624;-1.688;2023-02-22T10:52:13;3;3;
70255;PMS5003;57669;52.624;-1.688;2023-02-22T10:54:38;5;5;
70255;PMS5003;57669;52.624;-1.688;2023-02-22T10:57:02;8;7;
70255;PMS5003;57669;52.624;-1.688;2023-02-22T10:59:29;9;9;
70255;PMS5003;57669;52.624;-1.688;2023-02-22T11:01:53;7;7;
70255;PMS5003;57669;52.624;-1.688;2023-02-22T11:04:19;9;9;
70255;PMS5003;57669;52.624;-1.688;2023-02-22T11:06:45;11;11;
70255;PMS5003;57669;52.624;-1.688;2023-02-22T11:09:11;10;9;
70255;PMS5003;57669;52.624;-1.688;2023-02-22T11:11:35;8;8;
70255;PMS5003;57669;52.624;-1.688;2023-02-22T11:14:00;9;9;
70255;PMS5003;57669;52.624;-1.688;2023-02-22T11:16:27;12;12;
70255;PMS5003;57669;52.624;-1.688;2023-02-22T11:18:54;9;9;
70255;PMS5003;57669;52.624;-1.688;2023-02-22T11:21:20;10;9;
70255;PMS5003;57669;52.624;-1.688;2023-02-22T11:23:42;14;14;
70255;PMS5003;57669;52.624;-1.688;2023-02-22T11:26:08;14;14;
70255;PMS5003;57669;52.624;-1.688;2023-02-22T11:28:33;12;12;
70255;PMS5003;57669;52.624;-1.688;2023-02-22T11:33:24;13;13;
70255;PMS5003;57669;52.624;-1.688;2023-02-22T11:35:51;10;10;
70255;PMS5003;57669;52.624;-1.688;2023-02-22T11:38:17;7;6;
70255;PMS5003;57669;52.624;-1.688;2023-02-22T11:40:41;7;7;
70255;PMS5003;57669;52.624;-1.688;2023-02-22T11:43:07;5;5;
70255;PMS5003;57669;52.624;-1.688;2023-02-22T11:45:32;8;8;
70255;PMS5003;57669;52.624;-1.688;2023-02-22T11:47:58;6;6;
70255;PMS5003;57669;52.624;-1.688;2023-02-22T11:50:26;7;7;
70255;PMS5003;57669;52.624;-1.688;2023-02-22T11:52:50;10;9;
70255;PMS5003;57669;52.624;-1.688;2023-02-22T11:55:16;9;9;
70255;PMS5003;57669;52.624;-1.688;2023-02-22T11:57:43;7;7;
70255;PMS5003;57669;52.624;-1.688;2023-02-22T12:00:11;7;7;
70255;PMS5003;57669;52.624;-1.688;2023-02-22T12:02:37;9;8;
70255;PMS5003;57669;52.624;-1.688;2023-02-22T12:07:25;8;8;
70255;PMS5003;57669;52.624;-1.688;2023-02-22T12:09:49;7;7;
70255;PMS5003;57669;52.624;-1.688;2023-02-22T12:12:15;8;7;
70255;PMS5003;57669;52.624;-1.688;2023-02-22T12:14:40;6;5;
70255;PMS5003;57669;52.624;-1.688;2023-02-22T12:17:07;7;6;
70255;PMS5003;57669;52.624;-1.688;2023-02-22T12:19:30;9;9;
70255;PMS5003;57669;52.624;-1.688;2023-02-22T12:21:55;7;6;
70255;PMS5003;57669;52.624;-1.688;2023-02-22T12:24:21;7;7;
70255;PMS5003;57669;52.624;-1.688;2023-02-22T12:26:46;6;6;
70255;PMS5003;57669;52.624;-1.688;2023-02-22T12:29:11;5;5;
70255;PMS5003;57669;52.624;-1.688;2023-02-22T12:31:36;7;7;
70255;PMS5003;57669;52.624;-1.688;2023-02-22T12:34:03;10;9;
70255;PMS5003;57669;52.624;-1.688;2023-02-22T12:36:31;6;6;
70255;PMS5003;57669;52.624;-1.688;2023-02-22T12:38:53;5;5;
70255;PMS5003;57669;52.624;-1.688;2023-02-22T12:41:19;5;5;
70255;PMS5003;57669;52.624;-1.688;2023-02-22T12:43:44;6;6;
70255;PMS5003;57669;52.624;-1.688;2023-02-22T12:46:09;9;8;
70255;PMS5003;57669;52.624;-1.688;2023-02-22T12:48:37;7;7;
70255;PMS5003;57669;52.624;-1.688;2023-02-22T12:51:01;8;8;
70255;PMS5003;57669;52.624;-1.688;2023-02-22T12:53:25;8;7;
70255;PMS5003;57669;52.624;-1.688;2023-02-22T12:55:51;6;6;
70255;PMS5003;57669;52.624;-1.688;2023-02-22T12:58:18;7;7;
70255;PMS5003;57669;52.624;-1.688;2023-02-22T13:00:43;4;4;
70255;PMS5003;57669;52.624;-1.688;2023-02-22T13:05:34;4;4;
70255;PMS5003;57669;52.624;-1.688;2023-02-22T13:08:02;4;4;
70255;PMS5003;57669;52.624;-1.688;2023-02-22T13:10:30;5;5;
70255;PMS5003;57669;52.624;-1.688;2023-02-22T13:12:52;5;5;
70255;PMS5003;57669;52.624;-1.688;2023-02-22T13:15:17;5;5;
70255;PMS5003;57669;52.624;-1.688;2023-02-22T13:17:43;4;4;
70255;PMS5003;57669;52.624;-1.688;2023-02-22T13:20:09;3;3;
70255;PMS5003;57669;52.624;-1.688;2023-02-22T13:22:34;4;4;
70255;PMS5003;57669;52.624;-1.688;2023-02-22T13:25:01;4;3;
70255;PMS5003;57669;52.624;-1.688;2023-02-22T13:27:26;3;2;
70255;PMS5003;57669;52.624;-1.688;2023-02-22T13:29:52;4;4;
70255;PMS5003;57669;52.624;-1.688;2023-02-22T13:32:20;6;6;
70255;PMS5003;57669;52.624;-1.688;2023-02-22T13:34:47;8;8;
70255;PMS5003;57669;52.624;-1.688;2023-02-22T13:37:13;13;13;
70255;PMS5003;57669;52.624;-1.688;2023-02-22T13:39:38;9;9;
70255;PMS5003;57669;52.624;-1.688;2023-02-22T13:42:03;11;11;
70255;PMS5003;57669;52.624;-1.688;2023-02-22T13:44:33;11;11;
70255;PMS5003;57669;52.624;-1.688;2023-02-22T13:49:20;11;11;
70255;PMS5003;57669;52.624;-1.688;2023-02-22T13:51:44;9;9;
70255;PMS5003;57669;52.624;-1.688;2023-02-22T13:54:11;8;7;
70255;PMS5003;57669;52.624;-1.688;2023-02-22T13:56:34;5;5;
70255;PMS5003;57669;52.624;-1.688;2023-02-22T13:59:01;7;7;
70255;PMS5003;57669;52.624;-1.688;2023-02-22T14:03:50;4;4;
70255;PMS5003;57669;52.624;-1.688;2023-02-22T14:08:43;6;5;
70255;PMS5003;57669;52.624;-1.688;2023-02-22T14:13:49;6;5;
70255;PMS5003;57669;52.624;-1.688;2023-02-22T14:18:24;3;3;
70255;PMS5003;57669;52.624;-1.688;2023-02-22T14:25:41;5;5;
70255;PMS5003;57669;52.624;-1.688;2023-02-22T14:28:07;11;10;
70255;PMS5003;57669;52.624;-1.688;2023-02-22T14:30:32;5;5;
70255;PMS5003;57669;52.624;-1.688;2023-02-22T14:32:57;6;6;
70255;PMS5003;57669;52.624;-1.688;2023-02-22T14:35:23;6;6;
70255;PMS5003;57669;52.624;-1.688;2023-02-22T14:37:50;7;7;
70255;PMS5003;57669;52.624;-1.688;2023-02-22T14:40:16;7;6;
70255;PMS5003;57669;52.624;-1.688;2023-02-22T14:42:41;5;5;
70255;PMS5003;57669;52.624;-1.688;2023-02-22T14:45:09;8;8;
70255;PMS5003;57669;52.624;-1.688;2023-02-22T14:47:34;7;7;
70255;PMS5003;57669;52.624;-1.688;2023-02-22T14:50:00;8;7;
70255;PMS5003;57669;52.624;-1.688;2023-02-22T14:52:24;4;4;
70255;PMS5003;57669;52.624;-1.688;2023-02-22T14:54:51;7;7;
70255;PMS5003;57669;52.624;-1.688;2023-02-22T14:57:18;6;6;
70255;PMS5003;57669;52.624;-1.688;2023-02-22T14:59:46;6;6;
70255;PMS5003;57669;52.624;-1.688;2023-02-22T15:02:10;6;5;
70255;PMS5003;57669;52.624;-1.688;2023-02-22T15:04:32;6;6;
70255;PMS5003;57669;52.624;-1.688;2023-02-22T15:06:58;4;4;
70255;PMS5003;57669;52.624;-1.688;2023-02-22T15:09:24;6;6;
70255;PMS5003;57669;52.624;-1.688;2023-02-22T15:11:49;7;7;
70255;PMS5003;57669;52.624;-1.688;2023-02-22T15:14:15;7;7;
70255;PMS5003;57669;52.624;-1.688;2023-02-22T15:16:40;7;7;
70255;PMS5003;57669;52.624;-1.688;2023-02-22T15:19:06;7;7;
70255;PMS5003;57669;52.624;-1.688;2023-02-22T15:21:32;7;7;
70255;PMS5003;57669;52.624;-1.688;2023-02-22T15:23:59;4;4;
70255;PMS5003;57669;52.624;-1.688;2023-02-22T15:26:24;5;4;
70255;PMS5003;57669;52.624;-1.688;2023-02-22T15:28:52;4;3;
70255;PMS5003;57669;52.624;-1.688;2023-02-22T15:31:16;6;4;
70255;PMS5003;57669;52.624;-1.688;2023-02-22T15:33:40;4;4;
70255;PMS5003;57669;52.624;-1.688;2023-02-22T15:36:11;4;4;
70255;PMS5003;57669;52.624;-1.688;2023-02-22T15:38:32;5;5;
70255;PMS5003;57669;52.624;-1.688;2023-02-22T15:40:58;5;4;
70255;PMS5003;57669;52.624;-1.688;2023-02-22T15:43:23;8;8;
70255;PMS5003;57669;52.624;-1.688;2023-02-22T15:45:49;9;7;
70255;PMS5003;57669;52.624;-1.688;2023-02-22T15:48:15;5;5;
70255;PMS5003;57669;52.624;-1.688;2023-02-22T15:53:07;5;3;
70255;PMS5003;57669;52.624;-1.688;2023-02-22T15:55:33;3;2;
70255;PMS5003;57669;52.624;-1.688;2023-02-22T15:57:59;1;1;
70255;PMS5003;57669;52.624;-1.688;2023-02-22T16:00:25;4;4;
70255;PMS5003;57669;52.624;-1.688;2023-02-22T16:02:50;4;4;
70255;PMS5003;57669;52.624;-1.688;2023-02-22T16:05:16;3;3;
70255;PMS5003;57669;52.624;-1.688;2023-02-22T16:07:43;6;6;
70255;PMS5003;57669;52.624;-1.688;2023-02-22T16:10:07;7;6;
70255;PMS5003;57669;52.624;-1.688;2023-02-22T16:12:33;7;6;
70255;PMS5003;57669;52.624;-1.688;2023-02-22T16:14:58;5;5;
70255;PMS5003;57669;52.624;-1.688;2023-02-22T16:17:26;6;5;
70255;PMS5003;57669;52.624;-1.688;2023-02-22T16:24:41;8;7;
70255;PMS5003;57669;52.624;-1.688;2023-02-22T16:29:32;4;4;
70255;PMS5003;57669;52.624;-1.688;2023-02-22T16:31:58;3;3;
70255;PMS5003;57669;52.624;-1.688;2023-02-22T16:34:24;3;3;
70255;PMS5003;57669;52.624;-1.688;2023-02-22T16:36:50;5;4;
70255;PMS5003;57669;52.624;-1.688;2023-02-22T16:39:16;7;4;
70255;PMS5003;57669;52.624;-1.688;2023-02-22T16:41:41;3;3;
70255;PMS5003;57669;52.624;-1.688;2023-02-22T16:44:07;2;2;
70255;PMS5003;57669;52.624;-1.688;2023-02-22T16:46:33;3;3;
70255;PMS5003;57669;52.624;-1.688;2023-02-22T16:48:58;5;4;
70255;PMS5003;57669;52.624;-1.688;2023-02-22T16:51:24;4;4;
70255;PMS5003;57669;52.624;-1.688;2023-02-22T16:53:51;5;4;
70255;PMS5003;57669;52.624;-1.688;2023-02-22T16:56:16;3;2;
70255;PMS5003;57669;52.624;-1.688;2023-02-22T16:58:41;6;4;
70255;PMS5003;57669;52.624;-1.688;2023-02-22T17:01:07;3;3;
70255;PMS5003;57669;52.624;-1.688;2023-02-22T17:03:33;3;2;
70255;PMS5003;57669;52.624;-1.688;2023-02-22T17:05:59;4;3;
70255;PMS5003;57669;52.624;-1.688;2023-02-22T17:08:25;5;4;